createdAt,value
2023-05-23T00:01:49.775Z,98560.73
2023-05-23T00:06:51.595Z,98558.86
2023-05-23T00:11:53.651Z,98553.23
2023-05-23T00:16:55.757Z,98548.48
2023-05-23T00:21:58.562Z,98546.63
2023-05-23T00:27:01.205Z,98542.34
2023-05-23T00:32:02.993Z,98543.02
2023-05-23T00:37:05.450Z,98539.27
2023-05-23T00:42:07.877Z,98543.55
2023-05-23T00:47:11.229Z,98541.66
2023-05-23T00:52:13.000Z,98544.73
2023-05-23T00:57:14.929Z,98541.80
2023-05-23T01:02:16.673Z,98536.83
2023-05-23T01:07:18.353Z,98532.88
2023-05-23T01:12:54.808Z,98539.34
2023-05-23T01:18:08.487Z,98539.86
2023-05-23T01:23:23.902Z,98539.70
2023-05-23T01:28:33.529Z,98533.71
2023-05-23T01:33:36.460Z,98534.89
2023-05-23T01:38:38.348Z,98530.94
2023-05-23T01:43:40.741Z,98530.91
2023-05-23T01:48:43.314Z,98526.48
2023-05-23T01:53:45.625Z,98524.95
2023-05-23T01:58:47.908Z,98528.00
2023-05-23T02:03:50.094Z,98524.57
2023-05-23T02:08:51.803Z,98522.86
2023-05-23T02:13:53.497Z,98520.79
2023-05-23T02:18:56.528Z,98515.52
2023-05-23T02:23:58.406Z,98509.21
2023-05-23T02:29:00.176Z,98512.95
2023-05-23T02:34:01.952Z,98515.98
2023-05-23T02:39:04.916Z,98515.24
2023-05-23T02:44:06.837Z,98508.90
2023-05-23T02:49:09.039Z,98514.69
2023-05-23T02:54:10.804Z,98510.95
2023-05-23T02:59:13.859Z,98506.89
2023-05-23T03:04:16.279Z,98506.52
2023-05-23T03:09:18.121Z,98508.06
2023-05-23T03:14:19.987Z,98504.32
2023-05-23T03:19:21.866Z,98501.10
2023-05-23T03:24:23.659Z,98495.19
2023-05-23T03:29:25.418Z,98490.12
2023-05-23T03:34:27.348Z,98486.93
2023-05-23T03:39:29.107Z,98480.31
2023-05-23T03:44:32.032Z,98476.76
2023-05-23T03:49:33.936Z,98480.00
2023-05-23T03:54:37.239Z,98479.15
2023-05-23T03:59:39.422Z,98478.64
2023-05-23T04:04:43.384Z,98476.38
2023-05-23T04:09:45.390Z,98480.46
2023-05-23T04:14:48.639Z,98474.75
2023-05-23T04:19:51.618Z,98480.63
2023-05-23T04:24:53.835Z,98480.02
2023-05-23T04:29:58.278Z,98473.92
2023-05-23T04:35:02.307Z,98471.40
2023-05-23T04:40:07.370Z,98461.96
2023-05-23T04:45:21.682Z,98460.20
2023-05-23T04:50:36.082Z,98460.06
2023-05-23T04:55:39.237Z,98456.30
2023-05-23T05:00:45.565Z,98454.53
2023-05-23T05:05:49.260Z,98447.71
2023-05-23T05:10:51.266Z,98444.31
2023-05-23T05:15:54.908Z,98448.61
2023-05-23T05:20:58.701Z,98454.73
2023-05-23T05:26:00.852Z,98451.65
2023-05-23T05:31:05.227Z,98447.73
2023-05-23T05:36:09.321Z,98444.15
2023-05-23T05:41:11.601Z,98438.31
2023-05-23T05:46:21.730Z,98441.05
2023-05-23T05:51:24.540Z,98439.27
2023-05-23T05:56:27.956Z,98437.64
2023-05-23T06:01:30.936Z,98438.91
2023-05-23T06:06:33.030Z,98434.96
2023-05-23T06:11:35.314Z,98432.77
2023-05-23T06:16:37.343Z,98432.58
2023-05-23T06:21:39.559Z,98434.41
2023-05-23T06:26:42.072Z,98429.50
2023-05-23T06:31:44.110Z,98417.67
2023-05-23T06:36:46.994Z,98408.86
2023-05-23T06:41:48.813Z,98412.18
2023-05-23T06:46:50.606Z,98408.94
2023-05-23T06:51:52.699Z,98403.90
2023-05-23T06:56:54.599Z,98401.04
2023-05-23T07:01:56.621Z,98398.10
2023-05-23T07:06:59.801Z,98396.94
2023-05-23T07:12:02.529Z,98389.21
2023-05-23T07:17:04.834Z,98383.67
2023-05-23T07:22:08.467Z,98380.75
2023-05-23T07:27:13.637Z,98380.08
2023-05-23T07:32:15.660Z,98380.02
2023-05-23T07:37:18.869Z,98373.63
2023-05-23T07:42:21.012Z,98370.97
2023-05-23T07:47:24.348Z,98371.63
2023-05-23T07:52:26.646Z,98376.95
2023-05-23T07:57:29.352Z,98375.42
2023-05-23T08:02:31.532Z,98376.63
2023-05-23T08:07:33.531Z,98372.02
2023-05-23T08:12:37.790Z,98366.93
2023-05-23T08:17:46.452Z,98366.19
2023-05-23T08:22:48.314Z,98360.91
2023-05-23T08:27:50.364Z,98357.10
2023-05-23T08:33:09.750Z,98356.05
2023-05-23T08:38:12.254Z,98352.09
2023-05-23T08:43:22.906Z,98343.31
2023-05-23T08:48:27.067Z,98342.98
2023-05-23T08:53:32.157Z,98346.98
2023-05-23T08:58:42.160Z,98343.60
2023-05-23T09:03:44.634Z,98344.56
2023-05-23T09:08:57.161Z,98342.20
2023-05-23T09:13:59.137Z,98344.33
2023-05-23T09:19:11.505Z,98350.15
2023-05-23T09:24:13.644Z,98350.98
2023-05-23T09:29:19.934Z,98353.33
2023-05-23T09:34:21.774Z,98341.34
2023-05-23T09:39:24.872Z,98336.83
2023-05-23T09:44:26.812Z,98318.60
2023-05-23T09:49:28.660Z,98324.78
2023-05-23T09:54:30.745Z,98318.35
2023-05-23T09:59:38.589Z,98303.79
2023-05-23T10:04:41.807Z,98301.38
2023-05-23T10:09:52.269Z,98296.95
2023-05-23T10:14:58.222Z,98295.73
2023-05-23T10:20:12.329Z,98291.67
2023-05-23T10:25:15.547Z,98289.27
2023-05-23T10:30:18.107Z,98289.84
2023-05-23T10:35:48.021Z,98291.91
2023-05-23T10:40:55.518Z,98288.20
2023-05-23T10:45:57.744Z,98282.20
2023-05-23T10:51:14.776Z,98282.81
2023-05-23T10:56:24.330Z,98283.54
2023-05-23T11:01:27.363Z,98277.95
2023-05-23T11:06:33.895Z,98274.07
2023-05-23T11:11:53.356Z,98274.77
2023-05-23T11:16:55.127Z,98267.48
2023-05-23T11:22:06.162Z,98259.36
2023-05-23T11:27:12.504Z,98256.64
2023-05-23T11:32:17.406Z,98252.98
2023-05-23T11:37:20.999Z,98251.89
2023-05-23T11:42:24.123Z,98254.77
2023-05-23T11:47:26.101Z,98283.02
2023-05-23T11:52:32.518Z,98339.38
2023-05-23T11:57:34.289Z,98360.77
2023-05-23T12:02:43.369Z,98375.61
2023-05-23T12:07:49.737Z,98386.74
2023-05-23T12:12:52.111Z,98383.58
2023-05-23T12:17:55.882Z,98389.34
2023-05-23T12:22:57.748Z,98378.38
2023-05-23T12:28:00.569Z,98349.27
2023-05-23T12:33:08.551Z,98323.08
2023-05-23T12:38:14.769Z,98316.90
2023-05-23T12:43:16.699Z,98317.39
2023-05-23T12:48:18.498Z,98316.77
2023-05-23T12:53:20.430Z,98317.84
2023-05-23T12:58:22.393Z,98316.77
2023-05-23T13:03:25.017Z,98318.86
2023-05-23T13:08:30.156Z,98310.05
2023-05-23T13:13:34.886Z,98304.36
2023-05-23T13:18:38.138Z,98302.20
2023-05-23T13:24:04.485Z,98302.70
2023-05-23T13:29:06.357Z,98299.45
2023-05-23T13:34:08.055Z,98297.41
2023-05-23T13:39:09.715Z,98296.29
2023-05-23T13:44:11.438Z,98287.89
2023-05-23T13:49:13.222Z,98298.52
2023-05-23T13:54:15.088Z,98306.61
2023-05-23T13:59:21.145Z,98311.13
2023-05-23T14:04:23.329Z,98315.75
2023-05-23T14:09:25.247Z,98314.46
2023-05-23T14:14:27.105Z,98305.59
2023-05-23T14:19:29.204Z,98302.19
2023-05-23T14:24:31.127Z,98309.64
2023-05-23T14:29:33.283Z,98311.70
2023-05-23T14:34:36.109Z,98318.05
2023-05-23T14:39:37.994Z,98317.59
2023-05-23T14:44:39.729Z,98321.85
2023-05-23T14:49:41.629Z,98315.85
2023-05-23T14:54:46.367Z,98327.70
2023-05-23T14:59:48.509Z,98333.62
2023-05-23T15:04:50.325Z,98329.19
2023-05-23T15:09:52.636Z,98336.63
2023-05-23T15:15:02.828Z,98338.28
2023-05-23T15:20:07.249Z,98341.33
2023-05-23T15:25:10.711Z,98334.92
2023-05-23T15:30:13.323Z,98330.77
2023-05-23T15:35:21.677Z,98326.45
2023-05-23T15:40:23.465Z,98323.78
2023-05-23T15:45:25.361Z,98333.98
2023-05-23T15:50:27.077Z,98337.82
2023-05-23T15:55:28.877Z,98338.08
2023-05-23T16:00:30.665Z,98335.58
2023-05-23T16:05:32.395Z,98334.23
2023-05-23T16:10:34.106Z,98327.52
2023-05-23T16:15:35.808Z,98324.02
2023-05-23T16:20:37.612Z,98319.84
2023-05-23T16:25:39.613Z,98322.69
2023-05-23T16:30:41.414Z,98319.27
2023-05-23T16:35:43.309Z,98323.15
2023-05-23T16:40:45.454Z,98327.06
2023-05-23T16:45:47.526Z,98324.08
2023-05-23T16:50:49.569Z,98321.70
2023-05-23T16:55:51.378Z,98323.16
2023-05-23T17:00:53.527Z,98326.42
2023-05-23T17:05:56.029Z,98323.77
2023-05-23T17:10:57.782Z,98318.33
2023-05-23T17:15:59.535Z,98321.18
2023-05-23T17:21:01.527Z,98322.73
2023-05-23T17:26:03.283Z,98326.18
2023-05-23T17:31:05.144Z,98333.06
2023-05-23T17:36:07.003Z,98333.27
2023-05-23T17:41:08.726Z,98337.62
2023-05-23T17:46:10.799Z,98339.92
2023-05-23T17:51:13.045Z,98345.94
2023-05-23T17:56:14.855Z,98346.10
2023-05-23T18:01:16.878Z,98343.42
2023-05-23T18:06:18.931Z,98351.56
2023-05-23T18:11:22.184Z,98352.94
2023-05-23T18:16:23.964Z,98366.45
2023-05-23T18:21:26.894Z,98369.39
2023-05-23T18:26:28.901Z,98373.05
2023-05-23T18:31:30.628Z,98384.42
2023-05-23T18:36:33.035Z,98384.12
2023-05-23T18:41:34.885Z,98389.26
2023-05-23T18:46:36.968Z,98396.48
2023-05-23T18:51:38.935Z,98407.02
2023-05-23T18:56:40.676Z,98411.73
2023-05-23T19:01:42.703Z,98412.95
2023-05-23T19:06:45.682Z,98412.27
2023-05-23T19:11:47.410Z,98417.30
2023-05-23T19:16:49.493Z,98416.03
2023-05-23T19:21:51.503Z,98416.80
2023-05-23T19:26:53.953Z,98421.36
2023-05-23T19:31:55.910Z,98423.69
2023-05-23T19:36:58.054Z,98423.67
2023-05-23T19:41:59.795Z,98429.80
2023-05-23T19:47:01.501Z,98431.19
2023-05-23T19:52:03.818Z,98435.65
2023-05-23T19:57:05.922Z,98443.19
2023-05-23T20:02:07.780Z,98434.45
2023-05-23T20:07:10.007Z,98440.95
2023-05-23T20:12:11.846Z,98448.18
2023-05-23T20:17:13.750Z,98447.45
2023-05-23T20:22:15.999Z,98447.23
2023-05-23T20:27:17.884Z,98447.73
2023-05-23T20:32:19.611Z,98456.48
2023-05-23T20:37:21.555Z,98459.59
2023-05-23T20:42:23.433Z,98468.38
2023-05-23T20:47:25.868Z,98480.07
2023-05-23T20:52:27.865Z,98486.35
2023-05-23T20:57:30.222Z,98485.69
2023-05-23T21:02:32.356Z,98487.06
2023-05-23T21:07:35.438Z,98490.59
2023-05-23T21:12:37.948Z,98491.25
2023-05-23T21:17:42.720Z,98487.38
2023-05-23T21:22:44.457Z,98492.82
2023-05-23T21:27:46.226Z,98490.58
2023-05-23T21:32:47.939Z,98490.11
2023-05-23T21:37:49.845Z,98491.60
2023-05-23T21:42:52.280Z,98494.27
2023-05-23T21:47:55.076Z,98496.60
2023-05-23T21:52:58.415Z,98499.42
2023-05-23T21:58:00.183Z,98505.86
2023-05-23T22:03:02.093Z,98510.02
2023-05-23T22:08:04.095Z,98507.73
2023-05-23T22:13:07.450Z,98509.20
2023-05-23T22:18:09.166Z,98512.42
2023-05-23T22:23:16.593Z,98517.66
2023-05-23T22:28:18.327Z,98523.61
2023-05-23T22:33:20.185Z,98527.08
2023-05-23T22:38:21.966Z,98527.58
2023-05-23T22:43:23.937Z,98531.69
2023-05-23T22:48:26.100Z,98531.52
2023-05-23T22:53:28.847Z,98532.67
2023-05-23T22:58:30.688Z,98530.98
2023-05-23T23:03:32.689Z,98527.69
2023-05-23T23:08:36.098Z,98520.57
2023-05-23T23:13:42.049Z,98517.73
2023-05-23T23:18:43.804Z,98514.39
2023-05-23T23:23:45.538Z,98520.06
2023-05-23T23:28:47.441Z,98518.64
2023-05-23T23:33:49.190Z,98518.12
2023-05-23T23:38:51.628Z,98517.09
2023-05-23T23:43:54.501Z,98519.30
2023-05-23T23:48:58.693Z,98518.52
2023-05-23T23:54:00.658Z,98522.23
2023-05-23T23:59:02.451Z,98525.30
